sensor_id;sensor_type;location;lat;lon;timestamp;temperature;humidity
9901;DHT22;4989;48.772;9.154;2023-01-10T00:00:57;6.60;99.90
9901;DHT22;4989;48.772;9.154;2023-01-10T00:05:59;6.40;99.90
9901;DHT22;4989;48.772;9.154;2023-01-10T00:11:01;6.40;99.90
9901;DHT22;4989;48.772;9.154;2023-01-10T00:16:23;6.20;99.90
9901;DHT22;4989;48.772;9.154;2023-01-10T00:21:25;6.20;99.90
9901;DHT22;4989;48.772;9.154;2023-01-10T00:26:29;6.20;99.90
9901;DHT22;4989;48.772;9.154;2023-01-10T00:31:31;6.20;99.90
9901;DHT22;4989;48.772;9.154;2023-01-10T00:36:33;6.00;99.90
9901;DHT22;4989;48.772;9.154;2023-01-10T00:41:36;6.10;99.90
9901;DHT22;4989;48.772;9.154;2023-01-10T00:46:57;6.40;99.90
9901;DHT22;4989;48.772;9.154;2023-01-10T00:51:59;6.10;99.90
9901;DHT22;4989;48.772;9.154;2023-01-10T00:57:01;6.20;99.90
9901;DHT22;4989;48.772;9.154;2023-01-10T01:02:03;6.10;99.90
9901;DHT22;4989;48.772;9.154;2023-01-10T01:07:05;6.10;99.90
9901;DHT22;4989;48.772;9.154;2023-01-10T01:12:07;6.20;99.90
9901;DHT22;4989;48.772;9.154;2023-01-10T01:17:09;6.20;99.90
9901;DHT22;4989;48.772;9.154;2023-01-10T01:22:11;6.20;99.90
9901;DHT22;4989;48.772;9.154;2023-01-10T01:27:13;6.50;99.90
9901;DHT22;4989;48.772;9.154;2023-01-10T01:32:16;6.50;99.90
9901;DHT22;4989;48.772;9.154;2023-01-10T01:37:18;6.50;99.90
9901;DHT22;4989;48.772;9.154;2023-01-10T01:42:29;6.40;99.90
9901;DHT22;4989;48.772;9.154;2023-01-10T01:47:36;6.30;99.90
9901;DHT22;4989;48.772;9.154;2023-01-10T01:52:44;6.30;99.90
9901;DHT22;4989;48.772;9.154;2023-01-10T01:57:51;6.30;99.90
9901;DHT22;4989;48.772;9.154;2023-01-10T02:02:56;6.30;99.90
9901;DHT22;4989;48.772;9.154;2023-01-10T02:08:04;6.10;99.90
9901;DHT22;4989;48.772;9.154;2023-01-10T02:13:08;6.40;99.90
9901;DHT22;4989;48.772;9.154;2023-01-10T02:18:13;6.60;99.90
9901;DHT22;4989;48.772;9.154;2023-01-10T02:45:59;6.60;99.90
9901;DHT22;4989;48.772;9.154;2023-01-10T02:51:21;7.10;99.90
9901;DHT22;4989;48.772;9.154;2023-01-10T03:07:42;7.30;99.90
9901;DHT22;4989;48.772;9.154;2023-01-10T03:12:57;7.20;99.00
9901;DHT22;4989;48.772;9.154;2023-01-10T03:18:14;6.10;99.90
9901;DHT22;4989;48.772;9.154;2023-01-10T03:23:21;6.30;99.90
9901;DHT22;4989;48.772;9.154;2023-01-10T03:28:46;6.50;99.90
9901;DHT22;4989;48.772;9.154;2023-01-10T03:33:51;7.10;99.90
9901;DHT22;4989;48.772;9.154;2023-01-10T03:49:40;7.40;98.10
9901;DHT22;4989;48.772;9.154;2023-01-10T03:54:46;7.40;99.20
9901;DHT22;4989;48.772;9.154;2023-01-10T03:59:53;7.10;99.50
9901;DHT22;4989;48.772;9.154;2023-01-10T04:04:58;7.00;99.30
9901;DHT22;4989;48.772;9.154;2023-01-10T04:10:00;6.20;99.90
9901;DHT22;4989;48.772;9.154;2023-01-10T04:15:04;6.10;99.90
9901;DHT22;4989;48.772;9.154;2023-01-10T04:20:07;6.00;99.90
9901;DHT22;4989;48.772;9.154;2023-01-10T04:25:09;5.90;99.90
9901;DHT22;4989;48.772;9.154;2023-01-10T04:30:12;5.90;99.90
9901;DHT22;4989;48.772;9.154;2023-01-10T04:35:14;5.70;99.90
9901;DHT22;4989;48.772;9.154;2023-01-10T04:40:16;5.80;99.90
9901;DHT22;4989;48.772;9.154;2023-01-10T04:45:20;5.80;99.90
9901;DHT22;4989;48.772;9.154;2023-01-10T04:50:22;5.60;99.90
9901;DHT22;4989;48.772;9.154;2023-01-10T04:55:25;5.50;99.90
9901;DHT22;4989;48.772;9.154;2023-01-10T05:00:27;5.50;99.90
9901;DHT22;4989;48.772;9.154;2023-01-10T05:05:30;5.50;99.90
9901;DHT22;4989;48.772;9.154;2023-01-10T05:10:32;5.50;99.90
9901;DHT22;4989;48.772;9.154;2023-01-10T05:15:34;5.40;99.90
9901;DHT22;4989;48.772;9.154;2023-01-10T05:20:37;5.50;99.90
9901;DHT22;4989;48.772;9.154;2023-01-10T05:25:39;5.60;99.60
9901;DHT22;4989;48.772;9.154;2023-01-10T05:35:43;5.70;99.30
9901;DHT22;4989;48.772;9.154;2023-01-10T05:40:46;5.90;98.90
9901;DHT22;4989;48.772;9.154;2023-01-10T05:45:48;6.00;98.50
9901;DHT22;4989;48.772;9.154;2023-01-10T05:50:51;6.10;99.40
9901;DHT22;4989;48.772;9.154;2023-01-10T05:55:59;6.10;98.30
9901;DHT22;4989;48.772;9.154;2023-01-10T06:01:03;6.00;98.40
9901;DHT22;4989;48.772;9.154;2023-01-10T06:06:05;6.00;97.90
9901;DHT22;4989;48.772;9.154;2023-01-10T06:11:08;6.10;97.40
9901;DHT22;4989;48.772;9.154;2023-01-10T06:16:10;6.10;97.80
9901;DHT22;4989;48.772;9.154;2023-01-10T06:21:12;6.20;97.30
9901;DHT22;4989;48.772;9.154;2023-01-10T06:26:14;6.40;96.70
9901;DHT22;4989;48.772;9.154;2023-01-10T06:31:17;6.60;95.70
9901;DHT22;4989;48.772;9.154;2023-01-10T06:36:22;6.70;95.30
9901;DHT22;4989;48.772;9.154;2023-01-10T06:41:24;6.30;95.40
9901;DHT22;4989;48.772;9.154;2023-01-10T06:46:27;6.20;96.00
9901;DHT22;4989;48.772;9.154;2023-01-10T06:51:29;6.20;95.90
9901;DHT22;4989;48.772;9.154;2023-01-10T06:56:31;6.30;96.00
9901;DHT22;4989;48.772;9.154;2023-01-10T07:01:33;6.30;95.80
9901;DHT22;4989;48.772;9.154;2023-01-10T07:06:36;6.30;95.80
9901;DHT22;4989;48.772;9.154;2023-01-10T07:11:40;6.30;95.10
9901;DHT22;4989;48.772;9.154;2023-01-10T07:16:42;6.60;94.60
9901;DHT22;4989;48.772;9.154;2023-01-10T07:21:44;6.60;94.20
9901;DHT22;4989;48.772;9.154;2023-01-10T07:26:46;6.50;94.30
9901;DHT22;4989;48.772;9.154;2023-01-10T07:31:48;6.40;94.50
9901;DHT22;4989;48.772;9.154;2023-01-10T07:36:50;6.20;95.30
9901;DHT22;4989;48.772;9.154;2023-01-10T07:41:53;6.20;95.40
9901;DHT22;4989;48.772;9.154;2023-01-10T07:46:56;6.10;95.60
9901;DHT22;4989;48.772;9.154;2023-01-10T07:51:58;6.10;95.70
9901;DHT22;4989;48.772;9.154;2023-01-10T07:57:00;6.30;95.60
9901;DHT22;4989;48.772;9.154;2023-01-10T08:02:03;6.30;95.50
9901;DHT22;4989;48.772;9.154;2023-01-10T08:07:05;6.30;95.60
9901;DHT22;4989;48.772;9.154;2023-01-10T08:12:07;6.30;95.50
9901;DHT22;4989;48.772;9.154;2023-01-10T08:17:09;6.30;95.50
9901;DHT22;4989;48.772;9.154;2023-01-10T08:22:11;6.30;95.80
9901;DHT22;4989;48.772;9.154;2023-01-10T08:27:13;6.30;95.30
9901;DHT22;4989;48.772;9.154;2023-01-10T08:32:16;6.40;95.40
9901;DHT22;4989;48.772;9.154;2023-01-10T08:37:18;6.40;95.10
9901;DHT22;4989;48.772;9.154;2023-01-10T08:42:20;6.60;94.70
9901;DHT22;4989;48.772;9.154;2023-01-10T08:47:23;6.60;94.80
9901;DHT22;4989;48.772;9.154;2023-01-10T08:52:25;6.70;95.00
9901;DHT22;4989;48.772;9.154;2023-01-10T08:57:27;6.70;95.00
9901;DHT22;4989;48.772;9.154;2023-01-10T09:02:29;6.70;95.50
9901;DHT22;4989;48.772;9.154;2023-01-10T09:07:31;6.70;95.60
9901;DHT22;4989;48.772;9.154;2023-01-10T09:12:34;6.80;95.00
9901;DHT22;4989;48.772;9.154;2023-01-10T09:17:56;6.70;95.10
9901;DHT22;4989;48.772;9.154;2023-01-10T09:23:10;6.80;95.20
9901;DHT22;4989;48.772;9.154;2023-01-10T09:28:19;6.70;95.50
9901;DHT22;4989;48.772;9.154;2023-01-10T09:33:22;6.60;95.50
9901;DHT22;4989;48.772;9.154;2023-01-10T09:38:27;6.40;96.40
9901;DHT22;4989;48.772;9.154;2023-01-10T09:44:00;6.30;97.10
9901;DHT22;4989;48.772;9.154;2023-01-10T09:59:40;6.80;96.80
9901;DHT22;4989;48.772;9.154;2023-01-10T10:04:48;6.80;97.00
9901;DHT22;4989;48.772;9.154;2023-01-10T10:10:32;6.80;97.70
9901;DHT22;4989;48.772;9.154;2023-01-10T10:27:35;7.80;95.40
9901;DHT22;4989;48.772;9.154;2023-01-10T10:38:23;7.30;95.60
9901;DHT22;4989;48.772;9.154;2023-01-10T10:43:34;7.30;95.40
9901;DHT22;4989;48.772;9.154;2023-01-10T10:48:45;7.70;94.50
9901;DHT22;4989;48.772;9.154;2023-01-10T10:53:51;7.90;94.00
9901;DHT22;4989;48.772;9.154;2023-01-10T10:58:58;7.80;95.10
9901;DHT22;4989;48.772;9.154;2023-01-10T11:04:09;8.00;94.20
9901;DHT22;4989;48.772;9.154;2023-01-10T11:09:21;7.70;94.00
9901;DHT22;4989;48.772;9.154;2023-01-10T11:14:53;7.70;94.50
9901;DHT22;4989;48.772;9.154;2023-01-10T11:20:17;7.60;96.10
9901;DHT22;4989;48.772;9.154;2023-01-10T11:25:21;8.20;94.30
9901;DHT22;4989;48.772;9.154;2023-01-10T11:30:27;8.50;93.60
9901;DHT22;4989;48.772;9.154;2023-01-10T11:35:34;8.90;93.20
9901;DHT22;4989;48.772;9.154;2023-01-10T11:40:38;9.00;92.60
9901;DHT22;4989;48.772;9.154;2023-01-10T11:46:20;8.90;92.20
9901;DHT22;4989;48.772;9.154;2023-01-10T11:51:29;8.30;92.50
9901;DHT22;4989;48.772;9.154;2023-01-10T11:56:35;8.80;92.00
9901;DHT22;4989;48.772;9.154;2023-01-10T12:07:13;9.00;90.10
9901;DHT22;4989;48.772;9.154;2023-01-10T12:17:34;9.40;87.50
9901;DHT22;4989;48.772;9.154;2023-01-10T12:22:40;9.00;88.10
9901;DHT22;4989;48.772;9.154;2023-01-10T12:27:46;8.40;88.90
9901;DHT22;4989;48.772;9.154;2023-01-10T12:32:52;8.10;88.30
9901;DHT22;4989;48.772;9.154;2023-01-10T12:43:54;9.30;84.70
9901;DHT22;4989;48.772;9.154;2023-01-10T12:49:18;12.60;68.10
9901;DHT22;4989;48.772;9.154;2023-01-10T12:54:24;10.20;71.80
9901;DHT22;4989;48.772;9.154;2023-01-10T12:59:33;8.90;73.50
9901;DHT22;4989;48.772;9.154;2023-01-10T13:04:43;8.60;77.10
9901;DHT22;4989;48.772;9.154;2023-01-10T13:09:52;8.50;76.70
9901;DHT22;4989;48.772;9.154;2023-01-10T13:15:02;8.50;75.40
9901;DHT22;4989;48.772;9.154;2023-01-10T13:25:32;8.30;76.20
9901;DHT22;4989;48.772;9.154;2023-01-10T13:30:37;8.20;75.80
9901;DHT22;4989;48.772;9.154;2023-01-10T13:35:43;8.10;77.90
9901;DHT22;4989;48.772;9.154;2023-01-10T13:41:00;8.30;76.80
9901;DHT22;4989;48.772;9.154;2023-01-10T13:51:31;8.40;74.20
9901;DHT22;4989;48.772;9.154;2023-01-10T14:01:38;9.10;73.30
9901;DHT22;4989;48.772;9.154;2023-01-10T14:07:02;8.70;76.20
9901;DHT22;4989;48.772;9.154;2023-01-10T14:12:18;9.10;73.60
9901;DHT22;4989;48.772;9.154;2023-01-10T14:17:29;9.70;73.20
9901;DHT22;4989;48.772;9.154;2023-01-10T14:22:37;9.30;71.30
9901;DHT22;4989;48.772;9.154;2023-01-10T14:27:47;8.90;71.20
9901;DHT22;4989;48.772;9.154;2023-01-10T14:32:54;8.80;69.50
9901;DHT22;4989;48.772;9.154;2023-01-10T14:38:01;8.40;70.60
9901;DHT22;4989;48.772;9.154;2023-01-10T14:43:08;8.70;72.10
9901;DHT22;4989;48.772;9.154;2023-01-10T14:48:26;8.40;72.20
9901;DHT22;4989;48.772;9.154;2023-01-10T14:53:30;8.30;74.00
9901;DHT22;4989;48.772;9.154;2023-01-10T14:58:32;7.90;74.60
9901;DHT22;4989;48.772;9.154;2023-01-10T15:03:34;7.70;75.50
9901;DHT22;4989;48.772;9.154;2023-01-10T15:08:39;7.60;76.70
9901;DHT22;4989;48.772;9.154;2023-01-10T15:13:49;7.90;77.00
9901;DHT22;4989;48.772;9.154;2023-01-10T15:18:54;7.70;77.40
9901;DHT22;4989;48.772;9.154;2023-01-10T15:24:00;7.60;78.10
9901;DHT22;4989;48.772;9.154;2023-01-10T15:29:12;7.40;77.80
9901;DHT22;4989;48.772;9.154;2023-01-10T15:34:22;7.50;78.10
9901;DHT22;4989;48.772;9.154;2023-01-10T15:39:32;7.70;76.50
9901;DHT22;4989;48.772;9.154;2023-01-10T15:44:42;7.40;78.20
9901;DHT22;4989;48.772;9.154;2023-01-10T15:49:53;7.50;77.80
9901;DHT22;4989;48.772;9.154;2023-01-10T15:54:56;7.80;76.70
9901;DHT22;4989;48.772;9.154;2023-01-10T15:59:58;7.60;77.80
9901;DHT22;4989;48.772;9.154;2023-01-10T16:05:12;7.80;77.40
9901;DHT22;4989;48.772;9.154;2023-01-10T16:10:22;7.80;75.60
9901;DHT22;4989;48.772;9.154;2023-01-10T16:15:32;7.60;76.80
9901;DHT22;4989;48.772;9.154;2023-01-10T16:20:42;7.40;77.60
9901;DHT22;4989;48.772;9.154;2023-01-10T16:25:52;7.30;78.10
9901;DHT22;4989;48.772;9.154;2023-01-10T16:30:56;7.20;79.50
9901;DHT22;4989;48.772;9.154;2023-01-10T16:35:59;7.00;80.50
9901;DHT22;4989;48.772;9.154;2023-01-10T16:41:02;7.30;79.70
9901;DHT22;4989;48.772;9.154;2023-01-10T16:46:24;7.20;79.70
9901;DHT22;4989;48.772;9.154;2023-01-10T16:51:28;7.40;80.10
9901;DHT22;4989;48.772;9.154;2023-01-10T16:56:33;7.60;78.30
9901;DHT22;4989;48.772;9.154;2023-01-10T17:01:38;7.60;77.60
9901;DHT22;4989;48.772;9.154;2023-01-10T17:06:42;7.60;77.60
9901;DHT22;4989;48.772;9.154;2023-01-10T17:11:44;7.50;77.70
9901;DHT22;4989;48.772;9.154;2023-01-10T17:16:47;7.20;78.20
9901;DHT22;4989;48.772;9.154;2023-01-10T17:21:51;7.00;79.70
9901;DHT22;4989;48.772;9.154;2023-01-10T17:26:53;6.90;79.30
9901;DHT22;4989;48.772;9.154;2023-01-10T17:31:55;7.10;79.90
9901;DHT22;4989;48.772;9.154;2023-01-10T17:36:57;7.10;78.80
9901;DHT22;4989;48.772;9.154;2023-01-10T17:41:59;6.90;79.20
9901;DHT22;4989;48.772;9.154;2023-01-10T17:47:01;7.10;78.10
9901;DHT22;4989;48.772;9.154;2023-01-10T17:52:04;7.20;78.70
9901;DHT22;4989;48.772;9.154;2023-01-10T17:57:06;7.50;77.50
9901;DHT22;4989;48.772;9.154;2023-01-10T18:02:15;7.60;76.40
9901;DHT22;4989;48.772;9.154;2023-01-10T18:07:19;8.10;75.40
9901;DHT22;4989;48.772;9.154;2023-01-10T18:12:21;7.60;75.00
9901;DHT22;4989;48.772;9.154;2023-01-10T18:17:23;7.50;75.20
9901;DHT22;4989;48.772;9.154;2023-01-10T18:22:25;7.00;77.00
9901;DHT22;4989;48.772;9.154;2023-01-10T18:27:46;7.00;77.80
9901;DHT22;4989;48.772;9.154;2023-01-10T18:32:53;6.90;78.40
9901;DHT22;4989;48.772;9.154;2023-01-10T18:37:55;7.00;77.80
9901;DHT22;4989;48.772;9.154;2023-01-10T18:42:58;6.90;78.40
9901;DHT22;4989;48.772;9.154;2023-01-10T18:48:00;6.90;78.20
9901;DHT22;4989;48.772;9.154;2023-01-10T18:53:03;7.30;78.10
9901;DHT22;4989;48.772;9.154;2023-01-10T18:58:05;7.60;76.60
9901;DHT22;4989;48.772;9.154;2023-01-10T19:03:08;8.00;75.30
9901;DHT22;4989;48.772;9.154;2023-01-10T19:08:10;7.80;75.00
9901;DHT22;4989;48.772;9.154;2023-01-10T19:13:14;7.90;74.90
9901;DHT22;4989;48.772;9.154;2023-01-10T19:18:16;8.10;73.20
9901;DHT22;4989;48.772;9.154;2023-01-10T19:23:19;7.70;74.60
9901;DHT22;4989;48.772;9.154;2023-01-10T19:28:21;7.70;73.70
9901;DHT22;4989;48.772;9.154;2023-01-10T19:33:23;7.80;74.30
9901;DHT22;4989;48.772;9.154;2023-01-10T19:38:25;7.30;75.50
9901;DHT22;4989;48.772;9.154;2023-01-10T19:43:28;7.00;77.40
9901;DHT22;4989;48.772;9.154;2023-01-10T19:48:30;6.90;77.40
9901;DHT22;4989;48.772;9.154;2023-01-10T19:53:36;6.80;78.00
9901;DHT22;4989;48.772;9.154;2023-01-10T19:58:39;6.80;78.70
9901;DHT22;4989;48.772;9.154;2023-01-10T20:03:42;6.70;79.40
9901;DHT22;4989;48.772;9.154;2023-01-10T20:08:47;6.60;79.70
9901;DHT22;4989;48.772;9.154;2023-01-10T20:13:50;6.70;79.20
9901;DHT22;4989;48.772;9.154;2023-01-10T20:18:53;6.70;79.40
9901;DHT22;4989;48.772;9.154;2023-01-10T20:23:55;6.80;79.10
9901;DHT22;4989;48.772;9.154;2023-01-10T20:29:01;6.70;79.30
9901;DHT22;4989;48.772;9.154;2023-01-10T20:34:05;6.70;80.20
9901;DHT22;4989;48.772;9.154;2023-01-10T20:39:07;6.60;79.80
9901;DHT22;4989;48.772;9.154;2023-01-10T20:44:09;6.70;79.60
9901;DHT22;4989;48.772;9.154;2023-01-10T20:49:11;6.80;79.50
9901;DHT22;4989;48.772;9.154;2023-01-10T20:54:14;6.80;78.90
9901;DHT22;4989;48.772;9.154;2023-01-10T20:59:16;7.00;78.20
9901;DHT22;4989;48.772;9.154;2023-01-10T21:04:19;6.90;78.10
9901;DHT22;4989;48.772;9.154;2023-01-10T21:09:21;6.90;78.10
9901;DHT22;4989;48.772;9.154;2023-01-10T21:14:23;6.80;77.80
9901;DHT22;4989;48.772;9.154;2023-01-10T21:19:25;7.00;76.90
9901;DHT22;4989;48.772;9.154;2023-01-10T21:24:28;6.90;77.70
9901;DHT22;4989;48.772;9.154;2023-01-10T21:29:30;7.00;78.90
9901;DHT22;4989;48.772;9.154;2023-01-10T21:34:32;6.80;80.20
9901;DHT22;4989;48.772;9.154;2023-01-10T21:39:34;6.70;83.50
9901;DHT22;4989;48.772;9.154;2023-01-10T21:44:36;6.70;84.40
9901;DHT22;4989;48.772;9.154;2023-01-10T21:49:39;6.80;84.20
9901;DHT22;4989;48.772;9.154;2023-01-10T21:54:41;6.60;84.10
9901;DHT22;4989;48.772;9.154;2023-01-10T21:59:43;6.70;83.40
9901;DHT22;4989;48.772;9.154;2023-01-10T22:04:49;6.80;83.40
9901;DHT22;4989;48.772;9.154;2023-01-10T22:09:54;7.00;81.90
9901;DHT22;4989;48.772;9.154;2023-01-10T22:14:56;7.40;80.70
9901;DHT22;4989;48.772;9.154;2023-01-10T22:20:01;7.60;78.30
9901;DHT22;4989;48.772;9.154;2023-01-10T22:25:04;7.60;77.60
9901;DHT22;4989;48.772;9.154;2023-01-10T22:30:07;7.70;77.20
9901;DHT22;4989;48.772;9.154;2023-01-10T22:35:09;7.70;76.80
9901;DHT22;4989;48.772;9.154;2023-01-10T22:40:15;7.50;77.30
9901;DHT22;4989;48.772;9.154;2023-01-10T22:45:18;7.60;77.50
9901;DHT22;4989;48.772;9.154;2023-01-10T22:50:21;7.70;76.30
9901;DHT22;4989;48.772;9.154;2023-01-10T22:55:24;7.70;76.20
9901;DHT22;4989;48.772;9.154;2023-01-10T23:00:26;7.60;76.30
9901;DHT22;4989;48.772;9.154;2023-01-10T23:05:29;7.60;76.60
9901;DHT22;4989;48.772;9.154;2023-01-10T23:10:32;7.70;76.70
9901;DHT22;4989;48.772;9.154;2023-01-10T23:15:34;7.40;77.90
9901;DHT22;4989;48.772;9.154;2023-01-10T23:20:36;7.30;79.50
9901;DHT22;4989;48.772;9.154;2023-01-10T23:25:38;7.10;81.30
9901;DHT22;4989;48.772;9.154;2023-01-10T23:30:41;7.20;82.70
9901;DHT22;4989;48.772;9.154;2023-01-10T23:35:42;7.20;82.60
9901;DHT22;4989;48.772;9.154;2023-01-10T23:40:45;7.10;83.80
9901;DHT22;4989;48.772;9.154;2023-01-10T23:45:47;7.10;84.50
9901;DHT22;4989;48.772;9.154;2023-01-10T23:50:50;7.10;84.50
9901;DHT22;4989;48.772;9.154;2023-01-10T23:55:52;7.00;86.10
